Time;durP1;ratioP1;P1;durP2;ratioP2;P2;SDS_P1;SDS_P2;PMS_P1;PMS_P2;Temp;Humidity;BMP_temperature;BMP_pressure;BME280_temperature;BME280_humidity;BME280_pressure;Samples;Min_cycle;Max_cycle;Signal;HPM_P1;HPM_P2
2022/05/03 00:00:59;;;;;;;8.52;7.53;;;;;;;;;;5043015;28;20159;-68
2022/05/03 00:03:28;;;;;;;9.27;8.35;;;;;;;;;;5058488;28;20083;-69
2022/05/03 00:05:57;;;;;;;11.13;8.05;;;;;;;;;;5043860;28;20688;-69
2022/05/03 00:08:44;;;;;;;10.30;8.43;;;;;;;;;;5063686;28;20376;-69
2022/05/03 00:11:11;;;;;;;12.00;8.88;;;;;;;;;;5062195;28;20439;-69
2022/05/03 00:13:47;;;;;;;16.20;8.82;;;;;;;;;;5063201;28;20048;-68
2022/05/03 00:16:14;;;;;;;13.15;8.70;;;;;;;;;;5044425;28;20154;-68
2022/05/03 00:18:41;;;;;;;10.77;8.38;;;;;;;;;;5065822;28;20048;-69
2022/05/03 00:21:08;;;;;;;10.13;8.45;;;;;;;;;;5046318;28;20048;-69
2022/05/03 00:23:35;;;;;;;10.00;8.15;;;;;;;;;;5064587;28;20074;-69
2022/05/03 00:26:02;;;;;;;11.90;8.32;;;;;;;;;;5067242;28;20073;-69
2022/05/03 00:28:28;;;;;;;9.05;8.15;;;;;;;;;;5069870;28;20153;-69
2022/05/03 00:30:55;;;;;;;9.80;8.27;;;;;;;;;;5065194;28;20151;-69
2022/05/03 00:33:23;;;;;;;11.90;8.93;;;;;;;;;;5065887;28;20054;-68
2022/05/03 00:35:49;;;;;;;11.90;8.82;;;;;;;;;;5062902;28;20087;-68
2022/05/03 00:38:16;;;;;;;12.32;8.18;;;;;;;;;;5028321;28;20059;-68
2022/05/03 00:40:48;;;;;;;9.65;7.75;;;;;;;;;;5062183;28;20063;-69
2022/05/03 00:43:31;;;;;;;10.45;8.48;;;;;;;;;;5065291;28;20477;-69
2022/05/03 00:46:01;;;;;;;11.13;9.00;;;;;;;;;;5045332;28;20534;-68
2022/05/03 00:48:45;;;;;;;11.00;8.48;;;;;;;;;;5064314;28;20040;-69
2022/05/03 00:51:29;;;;;;;9.20;7.70;;;;;;;;;;5065682;28;20052;-68
2022/05/03 00:54:15;;;;;;;8.48;7.05;;;;;;;;;;5052072;28;20036;-69
2022/05/03 00:57:05;;;;;;;10.48;6.88;;;;;;;;;;5067890;28;20040;-68
2022/05/03 00:59:46;;;;;;;9.07;6.95;;;;;;;;;;5025224;28;20171;-69
2022/05/03 01:02:14;;;;;;;8.02;6.28;;;;;;;;;;5066434;28;20451;-69
2022/05/03 01:04:58;;;;;;;10.35;7.82;;;;;;;;;;5063063;28;20583;-70
2022/05/03 01:07:29;;;;;;;9.30;7.07;;;;;;;;;;5060973;28;20047;-70
2022/05/03 01:10:01;;;;;;;12.77;8.38;;;;;;;;;;5052189;28;20052;-70
2022/05/03 01:12:46;;;;;;;11.18;8.30;;;;;;;;;;5054377;28;20494;-70
2022/05/03 01:15:21;;;;;;;9.05;7.88;;;;;;;;;;5067089;28;20141;-70
2022/05/03 01:18:07;;;;;;;9.50;8.25;;;;;;;;;;5053443;28;20043;-69
2022/05/03 01:20:40;;;;;;;11.43;7.97;;;;;;;;;;5049329;28;20077;-70
2022/05/03 01:23:24;;;;;;;11.07;8.15;;;;;;;;;;5051728;28;20032;-70
2022/05/03 01:26:08;;;;;;;9.27;8.27;;;;;;;;;;5068610;28;20101;-70
2022/05/03 01:28:56;;;;;;;8.73;7.75;;;;;;;;;;5036288;28;20083;-69
2022/05/03 01:31:23;;;;;;;9.98;7.78;;;;;;;;;;5064499;28;20048;-70
2022/05/03 01:33:50;;;;;;;10.32;7.90;;;;;;;;;;5049861;28;20182;-69
2022/05/03 01:36:30;;;;;;;9.68;7.88;;;;;;;;;;5066971;28;20317;-70
2022/05/03 01:39:16;;;;;;;9.02;7.85;;;;;;;;;;5052744;28;20051;-70
2022/05/03 01:42:00;;;;;;;10.27;8.13;;;;;;;;;;5066660;28;20037;-70
2022/05/03 01:44:45;;;;;;;8.70;7.38;;;;;;;;;;5066242;28;20049;-67
2022/05/03 01:47:21;;;;;;;11.23;8.45;;;;;;;;;;5070199;28;20041;-69
2022/05/03 01:50:19;;;;;;;10.35;7.97;;;;;;;;;;5047091;28;20044;-69
2022/05/03 01:53:05;;;;;;;11.50;8.25;;;;;;;;;;5066345;28;20465;-69
2022/05/03 01:55:31;;;;;;;12.95;8.93;;;;;;;;;;5049592;28;20048;-69
2022/05/03 01:58:16;;;;;;;13.90;9.82;;;;;;;;;;5050225;28;20516;-70
2022/05/03 02:00:46;;;;;;;11.05;9.90;;;;;;;;;;5047873;28;20147;-69
2022/05/03 02:03:29;;;;;;;11.88;9.77;;;;;;;;;;5050682;28;20048;-70
2022/05/03 02:05:55;;;;;;;;;;;;;;;;;;5066467;28;20036;-69
2022/05/03 02:08:22;;;;;;;12.52;10.32;;;;;;;;;;5066567;28;19930;-70
2022/05/03 02:11:07;;;;;;;13.48;10.40;;;;;;;;;;5072885;28;20527;-71
2022/05/03 02:16:39;;;;;;;13.73;10.80;;;;;;;;;;5051033;28;20048;-70
2022/05/03 02:19:08;;;;;;;13.20;10.50;;;;;;;;;;5049361;28;20065;-70
2022/05/03 02:21:41;;;;;;;14.82;11.38;;;;;;;;;;5057079;28;20433;-70
2022/05/03 02:24:16;;;;;;;14.13;10.73;;;;;;;;;;5046060;28;20044;-70
2022/05/03 02:27:03;;;;;;;14.82;11.75;;;;;;;;;;5066693;28;20162;-70
2022/05/03 02:29:36;;;;;;;13.07;10.98;;;;;;;;;;5060025;28;20094;-70
2022/05/03 02:32:03;;;;;;;17.60;11.98;;;;;;;;;;5068438;28;20041;-69
2022/05/03 02:34:29;;;;;;;16.83;12.25;;;;;;;;;;5041914;28;20044;-69
2022/05/03 02:36:59;;;;;;;19.67;12.88;;;;;;;;;;5047560;28;20040;-67
2022/05/03 02:39:31;;;;;;;15.82;11.27;;;;;;;;;;5066011;28;20047;-68
2022/05/03 02:42:02;;;;;;;15.30;12.02;;;;;;;;;;5050755;28;20446;-70
2022/05/03 02:44:30;;;;;;;21.77;12.23;;;;;;;;;;5064962;28;20523;-68
2022/05/03 02:46:56;;;;;;;14.07;11.70;;;;;;;;;;5065688;28;20036;-71
2022/05/03 02:49:39;;;;;;;17.27;13.15;;;;;;;;;;5047981;28;20362;-71
2022/05/03 02:52:24;;;;;;;15.82;12.73;;;;;;;;;;5049961;28;20040;-70
2022/05/03 02:55:12;;;;;;;18.70;12.18;;;;;;;;;;5049424;28;20047;-68
2022/05/03 02:57:44;;;;;;;14.77;11.10;;;;;;;;;;5050052;28;20044;-69
2022/05/03 03:02:58;;;;;;;14.82;10.60;;;;;;;;;;5046671;28;20047;-69
2022/05/03 03:05:26;;;;;;;14.25;12.20;;;;;;;;;;5045796;28;20087;-69
2022/05/03 03:07:55;;;;;;;16.02;11.75;;;;;;;;;;5066105;28;20102;-69
2022/05/03 03:10:22;;;;;;;15.65;11.73;;;;;;;;;;5066027;28;20090;-69
2022/05/03 03:13:07;;;;;;;15.98;12.65;;;;;;;;;;5047752;28;20336;-69
2022/05/03 03:15:40;;;;;;;12.93;11.27;;;;;;;;;;5049268;28;20028;-69
2022/05/03 03:18:09;;;;;;;15.13;11.27;;;;;;;;;;5046660;28;20040;-69
2022/05/03 03:20:36;;;;;;;14.93;12.38;;;;;;;;;;5047175;28;20045;-69
2022/05/03 03:23:03;;;;;;;14.25;11.32;;;;;;;;;;5065942;28;20664;-69
2022/05/03 03:25:29;;;;;;;20.33;12.43;;;;;;;;;;5049717;28;20066;-69
2022/05/03 03:27:57;;;;;;;16.00;12.35;;;;;;;;;;5066525;28;20132;-69
2022/05/03 03:30:23;;;;;;;18.77;12.57;;;;;;;;;;5067095;28;20036;-69
2022/05/03 03:32:55;;;;;;;17.52;13.32;;;;;;;;;;5064636;28;20037;-69
2022/05/03 03:35:21;;;;;;;15.15;11.85;;;;;;;;;;5048355;28;20274;-69
2022/05/03 03:37:51;;;;;;;17.80;13.98;;;;;;;;;;5065477;28;20044;-68
2022/05/03 03:40:18;;;;;;;20.20;15.15;;;;;;;;;;5065479;28;20041;-69
2022/05/03 03:42:45;;;;;;;17.90;14.15;;;;;;;;;;5066974;28;20044;-69
2022/05/03 03:45:13;;;;;;;20.98;16.10;;;;;;;;;;5069188;28;20493;-69
2022/05/03 03:47:40;;;;;;;20.70;16.38;;;;;;;;;;5054755;28;20465;-69
2022/05/03 03:50:07;;;;;;;20.20;15.40;;;;;;;;;;5045965;28;20512;-69
2022/05/03 03:52:34;;;;;;;20.15;14.68;;;;;;;;;;5046097;28;20075;-69
2022/05/03 03:55:01;;;;;;;18.42;15.70;;;;;;;;;;5050709;28;20044;-69
2022/05/03 03:57:27;;;;;;;23.45;16.58;;;;;;;;;;5065800;28;20070;-68
2022/05/03 03:59:53;;;;;;;22.33;15.25;;;;;;;;;;5066189;28;20135;-69
2022/05/03 04:02:21;;;;;;;19.95;14.85;;;;;;;;;;5063990;28;20037;-69
2022/05/03 04:04:48;;;;;;;20.25;14.95;;;;;;;;;;5065349;28;20427;-69
2022/05/03 04:07:15;;;;;;;20.48;15.73;;;;;;;;;;5051474;28;20044;-69
2022/05/03 04:09:41;;;;;;;23.98;17.10;;;;;;;;;;5048192;28;20497;-69
2022/05/03 04:12:07;;;;;;;22.88;16.40;;;;;;;;;;5065193;28;20055;-68
2022/05/03 04:14:35;;;;;;;20.30;15.15;;;;;;;;;;5063894;28;20044;-69
2022/05/03 04:17:01;;;;;;;20.50;15.77;;;;;;;;;;5051183;28;20047;-68
2022/05/03 04:19:27;;;;;;;20.85;15.68;;;;;;;;;;5057260;28;20064;-69
2022/05/03 04:21:54;;;;;;;24.77;16.60;;;;;;;;;;5043198;28;20407;-69
2022/05/03 04:24:20;;;;;;;25.85;16.80;;;;;;;;;;5061582;28;20075;-69
2022/05/03 04:26:46;;;;;;;20.25;14.52;;;;;;;;;;5062190;28;20041;-69
2022/05/03 04:29:12;;;;;;;23.42;15.77;;;;;;;;;;5061917;28;20052;-69
2022/05/03 04:31:38;;;;;;;22.77;15.50;;;;;;;;;;5062906;28;20037;-69
2022/05/03 04:34:05;;;;;;;23.30;16.67;;;;;;;;;;5066042;28;20033;-69
2022/05/03 04:36:32;;;;;;;21.88;16.75;;;;;;;;;;5063091;28;20466;-69
2022/05/03 04:38:59;;;;;;;20.98;15.95;;;;;;;;;;5049170;28;20504;-69
2022/05/03 04:41:25;;;;;;;22.30;16.90;;;;;;;;;;5063797;28;20033;-69
2022/05/03 04:43:52;;;;;;;22.50;17.70;;;;;;;;;;5045371;28;20132;-69
2022/05/03 04:46:19;;;;;;;27.08;17.83;;;;;;;;;;5048813;28;20089;-69
2022/05/03 04:48:45;;;;;;;20.20;16.02;;;;;;;;;;5068302;28;20040;-69
2022/05/03 04:51:25;;;;;;;26.05;19.90;;;;;;;;;;5067039;28;20094;-69
2022/05/03 04:53:52;;;;;;;27.55;18.67;;;;;;;;;;5052668;28;20055;-69
2022/05/03 04:56:22;;;;;;;29.10;18.38;;;;;;;;;;5054647;28;20047;-69
2022/05/03 04:58:49;;;;;;;23.52;18.63;;;;;;;;;;5055486;28;20156;-69
2022/05/03 05:01:15;;;;;;;24.55;18.02;;;;;;;;;;5068138;28;20040;-69
2022/05/03 05:03:42;;;;;;;21.92;15.70;;;;;;;;;;5051102;28;20405;-69
2022/05/03 05:06:09;;;;;;;22.02;17.63;;;;;;;;;;5047925;28;20292;-69
2022/05/03 05:08:37;;;;;;;25.33;17.55;;;;;;;;;;5049567;28;20041;-69
2022/05/03 05:11:03;;;;;;;22.45;16.58;;;;;;;;;;5046228;28;20469;-69
2022/05/03 05:13:30;;;;;;;24.70;17.67;;;;;;;;;;5053075;28;20225;-69
2022/05/03 05:15:56;;;;;;;24.10;17.77;;;;;;;;;;5047155;28;20083;-69
2022/05/03 05:18:24;;;;;;;24.90;17.80;;;;;;;;;;5047672;28;20102;-69
2022/05/03 05:20:50;;;;;;;26.55;19.35;;;;;;;;;;5046232;28;20080;-69
2022/05/03 05:23:16;;;;;;;24.08;18.63;;;;;;;;;;5047185;28;20442;-69
2022/05/03 05:25:43;;;;;;;25.27;17.30;;;;;;;;;;5040733;28;20041;-69
2022/05/03 05:28:09;;;;;;;27.02;17.10;;;;;;;;;;5047474;28;20041;-69
2022/05/03 05:30:35;;;;;;;26.05;18.98;;;;;;;;;;5048365;28;20043;-69
2022/05/03 05:33:01;;;;;;;23.63;16.52;;;;;;;;;;5051629;28;21559;-69
2022/05/03 05:35:27;;;;;;;24.65;18.17;;;;;;;;;;5060289;28;20398;-70
2022/05/03 05:37:54;;;;;;;30.38;19.05;;;;;;;;;;5046961;28;20051;-70
2022/05/03 05:40:20;;;;;;;30.45;19.75;;;;;;;;;;5052681;28;20659;-70
2022/05/03 05:42:49;;;;;;;27.02;18.90;;;;;;;;;;5050866;28;20037;-70
2022/05/03 05:45:16;;;;;;;26.80;19.23;;;;;;;;;;5048001;28;20080;-71
2022/05/03 05:47:42;;;;;;;26.45;18.02;;;;;;;;;;5048537;28;20048;-70
2022/05/03 05:50:09;;;;;;;30.95;18.13;;;;;;;;;;5048198;28;20064;-70
2022/05/03 05:55:20;;;;;;;21.30;15.23;;;;;;;;;;5047390;28;20045;-70
2022/05/03 05:57:46;;;;;;;23.95;16.23;;;;;;;;;;5046514;28;20045;-70
2022/05/03 06:00:13;;;;;;;22.08;12.02;;;;;;;;;;5047071;28;20113;-68
2022/05/03 06:02:40;;;;;;;16.67;11.15;;;;;;;;;;5025175;28;20037;-72
2022/05/03 06:05:07;;;;;;;16.27;9.82;;;;;;;;;;5027342;28;20534;-72
2022/05/03 06:07:33;;;;;;;16.92;9.68;;;;;;;;;;5056299;28;20024;-72
2022/05/03 06:09:59;;;;;;;16.67;10.10;;;;;;;;;;5048234;28;20111;-71
2022/05/03 06:12:26;;;;;;;20.83;10.77;;;;;;;;;;5020273;28;20052;-71
2022/05/03 06:14:52;;;;;;;15.77;8.93;;;;;;;;;;5038564;28;20387;-71
2022/05/03 06:17:18;;;;;;;13.05;7.85;;;;;;;;;;5017954;28;20041;-72
2022/05/03 06:19:45;;;;;;;13.98;7.10;;;;;;;;;;5036827;28;20090;-72
2022/05/03 06:22:11;;;;;;;14.80;7.47;;;;;;;;;;5021446;28;20413;-71
2022/05/03 06:24:38;;;;;;;10.00;6.10;;;;;;;;;;5036566;28;20116;-71
2022/05/03 06:27:05;;;;;;;14.15;7.13;;;;;;;;;;5037713;28;20068;-72
2022/05/03 06:29:34;;;;;;;11.27;6.93;;;;;;;;;;5005698;28;20091;-72
2022/05/03 06:32:00;;;;;;;12.65;6.15;;;;;;;;;;5018890;28;20044;-73
2022/05/03 06:34:27;;;;;;;13.20;7.15;;;;;;;;;;5019304;28;20049;-72
2022/05/03 06:36:53;;;;;;;12.32;6.38;;;;;;;;;;5005980;28;20068;-72
2022/05/03 06:39:20;;;;;;;19.88;6.95;;;;;;;;;;5021139;28;20037;-72
2022/05/03 06:41:46;;;;;;;14.02;6.63;;;;;;;;;;5027864;28;20065;-73
2022/05/03 06:44:13;;;;;;;16.67;7.15;;;;;;;;;;5043306;28;20037;-72
2022/05/03 06:46:40;;;;;;;20.10;7.68;;;;;;;;;;5037595;28;20045;-72
2022/05/03 06:49:06;;;;;;;19.00;8.20;;;;;;;;;;5038416;28;20578;-72
2022/05/03 06:51:32;;;;;;;19.05;7.70;;;;;;;;;;5035877;28;20055;-72
2022/05/03 06:54:00;;;;;;;17.23;6.47;;;;;;;;;;5034342;28;20192;-72
2022/05/03 06:56:26;;;;;;;16.15;7.20;;;;;;;;;;5033476;28;20098;-72
2022/05/03 06:58:52;;;;;;;23.70;9.45;;;;;;;;;;5032436;28;20057;-72
2022/05/03 07:01:19;;;;;;;20.73;8.00;;;;;;;;;;5036412;28;20047;-72
2022/05/03 07:03:45;;;;;;;14.98;7.22;;;;;;;;;;5032118;28;20037;-72
2022/05/03 07:06:11;;;;;;;17.85;8.05;;;;;;;;;;5033732;28;20091;-72
2022/05/03 07:08:38;;;;;;;13.35;6.32;;;;;;;;;;5033997;28;20053;-72
2022/05/03 07:11:05;;;;;;;14.52;6.35;;;;;;;;;;5073011;28;20055;-72
2022/05/03 07:13:32;;;;;;;16.08;5.72;;;;;;;;;;5055953;28;20080;-73
2022/05/03 07:15:59;;;;;;;17.40;5.85;;;;;;;;;;5024749;28;20055;-72
2022/05/03 07:23:55;;;;;;;17.17;5.90;;;;;;;;;;5074673;28;20044;-72
2022/05/03 07:26:22;;;;;;;16.58;6.18;;;;;;;;;;5041158;28;20079;-72
2022/05/03 07:28:48;;;;;;;23.23;6.07;;;;;;;;;;5075479;28;20475;-72
2022/05/03 07:31:15;;;;;;;15.13;4.28;;;;;;;;;;5074988;28;20048;-72
2022/05/03 07:33:41;;;;;;;10.90;4.22;;;;;;;;;;5079572;28;20040;-72
2022/05/03 07:36:08;;;;;;;11.35;5.35;;;;;;;;;;5046992;28;20052;-72
2022/05/03 07:38:34;;;;;;;18.83;5.60;;;;;;;;;;5048698;28;20047;-73
2022/05/03 07:41:00;;;;;;;14.10;5.22;;;;;;;;;;5078298;28;20036;-72
2022/05/03 07:43:27;;;;;;;16.77;5.50;;;;;;;;;;5073407;28;20044;-73
2022/05/03 07:45:54;;;;;;;14.63;6.10;;;;;;;;;;5075241;28;20047;-72
2022/05/03 07:48:21;;;;;;;14.98;5.70;;;;;;;;;;5055632;28;20509;-73
2022/05/03 07:50:47;;;;;;;16.83;5.45;;;;;;;;;;5074100;28;20047;-73
2022/05/03 07:53:14;;;;;;;10.95;4.57;;;;;;;;;;5071973;28;20052;-73
2022/05/03 07:55:42;;;;;;;13.50;5.22;;;;;;;;;;5054464;28;20044;-72
2022/05/03 07:58:08;;;;;;;9.57;4.55;;;;;;;;;;5058402;28;20055;-72
2022/05/03 08:00:34;;;;;;;10.68;4.40;;;;;;;;;;5075033;28;20050;-72
2022/05/03 08:03:00;;;;;;;14.77;5.60;;;;;;;;;;5054639;28;20519;-73
2022/05/03 08:05:26;;;;;;;15.73;4.47;;;;;;;;;;5075454;28;20050;-72
2022/05/03 08:07:52;;;;;;;9.73;4.60;;;;;;;;;;5073894;28;20041;-73
2022/05/03 08:10:18;;;;;;;8.63;3.88;;;;;;;;;;5072768;28;20455;-73
2022/05/03 08:12:50;;;;;;;11.02;4.95;;;;;;;;;;5058292;28;20097;-72
2022/05/03 08:15:17;;;;;;;10.30;4.22;;;;;;;;;;5059190;28;20406;-73
2022/05/03 08:17:44;;;;;;;16.67;3.97;;;;;;;;;;5078280;28;20087;-73
2022/05/03 08:20:10;;;;;;;7.15;4.10;;;;;;;;;;5054112;28;20055;-73
2022/05/03 08:22:36;;;;;;;9.23;4.40;;;;;;;;;;5060005;28;20604;-73
2022/05/03 08:25:03;;;;;;;12.43;4.82;;;;;;;;;;5060643;28;20040;-73
2022/05/03 08:27:30;;;;;;;12.82;4.75;;;;;;;;;;5079822;28;20409;-73
2022/05/03 08:29:57;;;;;;;16.15;5.78;;;;;;;;;;5062932;28;20474;-73
2022/05/03 08:32:23;;;;;;;15.20;4.85;;;;;;;;;;5082165;28;20051;-73
2022/05/03 08:34:49;;;;;;;11.68;4.63;;;;;;;;;;5061257;28;20044;-73
2022/05/03 08:42:45;;;;;;;13.00;4.78;;;;;;;;;;5058810;28;20048;-73
2022/05/03 08:45:11;;;;;;;8.35;4.10;;;;;;;;;;5078270;28;20040;-72
2022/05/03 08:47:38;;;;;;;9.98;4.03;;;;;;;;;;5082918;28;20482;-73
2022/05/03 08:50:04;;;;;;;11.10;5.13;;;;;;;;;;5079825;28;20409;-73
2022/05/03 08:52:33;;;;;;;9.70;4.10;;;;;;;;;;5078121;28;20102;-73
2022/05/03 08:55:02;;;;;;;15.90;4.82;;;;;;;;;;5061664;28;20087;-73
2022/05/03 08:57:28;;;;;;;11.15;3.83;;;;;;;;;;5058831;28;20494;-73
2022/05/03 08:59:55;;;;;;;11.68;4.85;;;;;;;;;;5075499;28;20066;-73
2022/05/03 09:02:21;;;;;;;17.65;5.72;;;;;;;;;;5062620;28;20036;-73
2022/05/03 09:04:48;;;;;;;13.32;3.85;;;;;;;;;;5077869;28;20087;-73
2022/05/03 09:07:22;;;;;;;9.88;3.65;;;;;;;;;;5060336;28;20097;-73
2022/05/03 09:09:49;;;;;;;10.82;3.63;;;;;;;;;;5054618;28;20362;-73
2022/05/03 09:12:22;;;;;;;16.33;5.40;;;;;;;;;;5058452;28;20060;-73
2022/05/03 09:14:49;;;;;;;11.15;4.10;;;;;;;;;;5057713;28;20402;-73
2022/05/03 09:17:15;;;;;;;8.63;3.78;;;;;;;;;;5058301;28;20044;-73
2022/05/03 09:19:41;;;;;;;9.02;3.75;;;;;;;;;;5055904;28;20057;-73
2022/05/03 09:25:02;;;;;;;10.38;4.25;;;;;;;;;;5054839;28;20044;-73
2022/05/03 09:27:28;;;;;;;7.47;3.28;;;;;;;;;;5056035;28;20544;-73
2022/05/03 09:30:01;;;;;;;7.43;3.50;;;;;;;;;;5059826;28;20052;-73
2022/05/03 09:32:35;;;;;;;9.35;3.47;;;;;;;;;;5057752;28;20131;-73
2022/05/03 09:35:01;;;;;;;8.50;4.32;;;;;;;;;;5055464;28;20049;-73
2022/05/03 09:37:40;;;;;;;9.45;3.67;;;;;;;;;;5057611;28;20108;-73
2022/05/03 09:40:08;;;;;;;8.02;3.70;;;;;;;;;;5057628;28;20049;-73
2022/05/03 09:42:38;;;;;;;10.43;4.63;;;;;;;;;;5059032;28;20059;-72
2022/05/03 09:45:08;;;;;;;8.30;4.03;;;;;;;;;;5056878;28;20037;-73
2022/05/03 09:47:47;;;;;;;8.75;4.18;;;;;;;;;;5056864;28;20040;-74
2022/05/03 09:50:25;;;;;;;11.00;4.25;;;;;;;;;;5055421;28;20163;-73
2022/05/03 09:52:52;;;;;;;13.20;3.80;;;;;;;;;;5059140;28;20063;-74
2022/05/03 09:55:28;;;;;;;8.68;3.45;;;;;;;;;;5057632;28;20041;-73
2022/05/03 09:57:56;;;;;;;8.70;3.45;;;;;;;;;;5057861;28;20048;-74
2022/05/03 10:00:22;;;;;;;11.82;4.10;;;;;;;;;;5060109;28;20033;-74
2022/05/03 10:02:48;;;;;;;7.03;3.30;;;;;;;;;;5056995;28;20049;-74
2022/05/03 10:05:15;;;;;;;10.57;3.17;;;;;;;;;;5059331;28;20049;-74
2022/05/03 10:07:45;;;;;;;9.45;3.38;;;;;;;;;;5058431;28;20499;-74
2022/05/03 10:10:12;;;;;;;8.43;2.75;;;;;;;;;;5065586;28;20056;-74
2022/05/03 10:12:39;;;;;;;7.03;3.10;;;;;;;;;;5079505;28;20048;-74
2022/05/03 10:15:05;;;;;;;8.52;4.22;;;;;;;;;;5076680;28;20123;-74
2022/05/03 10:20:42;;;;;;;6.07;3.28;;;;;;;;;;5059995;28;20044;-74
2022/05/03 10:23:21;;;;;;;6.53;2.90;;;;;;;;;;5056039;28;20494;-74
2022/05/03 10:25:47;;;;;;;7.55;3.05;;;;;;;;;;5058866;28;20090;-74
2022/05/03 10:28:14;;;;;;;6.00;2.47;;;;;;;;;;5077735;28;20083;-74
2022/05/03 10:31:00;;;;;;;7.63;2.70;;;;;;;;;;5061263;28;20044;-74
2022/05/03 10:33:28;;;;;;;5.38;2.28;;;;;;;;;;5080023;28;20437;-75
2022/05/03 10:35:54;;;;;;;9.90;3.33;;;;;;;;;;5059527;28;20051;-74
2022/05/03 10:38:40;;;;;;;10.68;3.45;;;;;;;;;;5077769;28;20036;-74
2022/05/03 10:41:10;;;;;;;5.75;2.53;;;;;;;;;;5057028;28;20071;-74
2022/05/03 10:43:38;;;;;;;26.98;3.75;;;;;;;;;;5058898;28;20748;-74
2022/05/03 10:46:14;;;;;;;7.85;3.85;;;;;;;;;;5058195;28;20047;-74
2022/05/03 10:48:41;;;;;;;5.50;2.83;;;;;;;;;;5075303;28;20389;-74
2022/05/03 10:51:15;;;;;;;9.15;2.88;;;;;;;;;;5076331;28;20048;-74
2022/05/03 10:53:42;;;;;;;8.82;2.70;;;;;;;;;;5077222;28;20146;-74
2022/05/03 10:56:09;;;;;;;9.10;3.03;;;;;;;;;;5077162;28;20047;-74
2022/05/03 10:58:40;;;;;;;7.88;2.83;;;;;;;;;;5061031;28;20556;-74
2022/05/03 11:01:11;;;;;;;6.35;3.17;;;;;;;;;;5079147;28;20093;-74
2022/05/03 11:03:41;;;;;;;8.07;3.10;;;;;;;;;;5042507;28;20041;-74
2022/05/03 11:06:19;;;;;;;6.75;2.33;;;;;;;;;;5076832;28;20082;-74
2022/05/03 11:11:49;;;;;;;6.78;2.50;;;;;;;;;;5057691;28;20067;-75
2022/05/03 11:14:22;;;;;;;6.82;2.35;;;;;;;;;;5059816;28;20052;-74
2022/05/03 11:16:51;;;;;;;11.93;2.80;;;;;;;;;;5079634;28;20052;-74
2022/05/03 11:19:18;;;;;;;4.13;2.25;;;;;;;;;;5076692;28;20036;-74
2022/05/03 11:21:45;;;;;;;8.52;2.42;;;;;;;;;;5075840;28;20071;-74
2022/05/03 11:24:25;;;;;;;4.80;2.42;;;;;;;;;;5076412;28;20043;-74
2022/05/03 11:26:52;;;;;;;9.45;2.53;;;;;;;;;;5077370;28;20119;-74
2022/05/03 11:29:18;;;;;;;14.05;3.08;;;;;;;;;;5075794;28;20048;-75
2022/05/03 11:31:48;;;;;;;6.78;2.10;;;;;;;;;;5080745;28;20440;-75
2022/05/03 11:34:15;;;;;;;8.45;2.45;;;;;;;;;;5078937;28;20050;-74
2022/05/03 11:36:42;;;;;;;12.25;3.10;;;;;;;;;;5042431;28;20056;-75
2022/05/03 11:39:10;;;;;;;7.88;2.80;;;;;;;;;;5061885;28;20410;-75
2022/05/03 11:41:37;;;;;;;8.02;3.15;;;;;;;;;;5060872;28;20040;-75
2022/05/03 11:44:04;;;;;;;7.13;2.33;;;;;;;;;;5061203;28;20608;-74
2022/05/03 11:46:30;;;;;;;4.15;1.92;;;;;;;;;;5078182;28;20121;-75
2022/05/03 11:49:02;;;;;;;8.75;2.60;;;;;;;;;;5059466;28;20084;-74
2022/05/03 11:57:21;;;;;;;6.97;2.35;;;;;;;;;;5076277;28;20075;-73
2022/05/03 11:59:48;;;;;;;4.53;2.55;;;;;;;;;;5076180;28;20280;-73
2022/05/03 12:02:32;;;;;;;5.15;2.60;;;;;;;;;;5082738;28;20097;-72
2022/05/03 12:05:17;;;;;;;7.60;2.42;;;;;;;;;;5077167;28;20044;-73
2022/05/03 12:07:57;;;;;;;10.38;2.83;;;;;;;;;;5079645;28;20066;-72
2022/05/03 12:10:27;;;;;;;12.75;3.80;;;;;;;;;;5078198;28;20056;-73
2022/05/03 12:13:09;;;;;;;7.35;2.80;;;;;;;;;;5080347;28;20071;-73
2022/05/03 12:15:40;;;;;;;5.90;2.35;;;;;;;;;;5060822;28;20055;-73
2022/05/03 12:18:09;;;;;;;6.35;2.15;;;;;;;;;;5075213;28;20036;-73
2022/05/03 12:20:41;;;;;;;7.78;2.63;;;;;;;;;;5055633;28;20047;-73
2022/05/03 12:23:26;;;;;;;8.57;2.30;;;;;;;;;;5075207;28;20052;-73
2022/05/03 12:25:54;;;;;;;8.43;2.78;;;;;;;;;;5057040;28;20040;-73
2022/05/03 12:28:21;;;;;;;6.45;3.08;;;;;;;;;;5076343;28;20489;-72
2022/05/03 12:30:57;;;;;;;6.05;3.00;;;;;;;;;;5057388;28;20043;-73
2022/05/03 12:33:26;;;;;;;7.88;2.78;;;;;;;;;;5077988;28;20054;-73
2022/05/03 12:35:52;;;;;;;5.15;2.28;;;;;;;;;;5074849;28;20136;-73
2022/05/03 12:38:19;;;;;;;5.75;2.22;;;;;;;;;;5076224;28;20047;-73
2022/05/03 12:40:49;;;;;;;8.25;3.10;;;;;;;;;;5077801;28;20040;-73
2022/05/03 12:43:17;;;;;;;6.45;2.72;;;;;;;;;;5057502;28;20071;-73
2022/05/03 12:45:54;;;;;;;7.57;2.22;;;;;;;;;;5057787;28;20090;-73
2022/05/03 12:48:21;;;;;;;7.70;2.70;;;;;;;;;;5075971;28;20044;-74
2022/05/03 12:50:47;;;;;;;6.82;2.58;;;;;;;;;;5076075;28;20121;-73
2022/05/03 12:53:14;;;;;;;4.57;2.60;;;;;;;;;;5059096;28;20089;-74
2022/05/03 12:55:40;;;;;;;9.07;2.85;;;;;;;;;;5074465;28;20040;-73
2022/05/03 13:00:52;;;;;;;8.98;3.05;;;;;;;;;;5073566;28;20059;-73
2022/05/03 13:03:19;;;;;;;4.50;2.10;;;;;;;;;;5074850;28;20054;-73
2022/05/03 13:05:45;;;;;;;4.90;2.17;;;;;;;;;;5072907;28;20048;-73
2022/05/03 13:08:11;;;;;;;5.68;2.60;;;;;;;;;;5079724;28;20074;-73
2022/05/03 13:10:40;;;;;;;12.40;3.67;;;;;;;;;;5083313;28;20079;-73
2022/05/03 13:13:07;;;;;;;6.55;2.40;;;;;;;;;;5062161;28;20075;-73
2022/05/03 13:15:33;;;;;;;5.38;2.10;;;;;;;;;;5078741;28;20047;-73
2022/05/03 13:18:00;;;;;;;8.43;3.05;;;;;;;;;;5077964;28;20048;-74
2022/05/03 13:20:27;;;;;;;8.65;2.85;;;;;;;;;;5080600;28;20036;-73
2022/05/03 13:22:53;;;;;;;11.77;2.88;;;;;;;;;;5061830;28;20410;-73
2022/05/03 13:25:19;;;;;;;9.02;2.72;;;;;;;;;;5063276;28;20036;-74
2022/05/03 13:27:46;;;;;;;8.80;2.42;;;;;;;;;;5036114;28;20478;-74
2022/05/03 13:30:13;;;;;;;7.07;2.75;;;;;;;;;;5079999;28;20040;-74
2022/05/03 13:32:39;;;;;;;7.70;3.33;;;;;;;;;;5079809;28;20050;-74
2022/05/03 13:35:05;;;;;;;5.55;2.85;;;;;;;;;;5081542;28;20077;-74
2022/05/03 13:40:37;;;;;;;8.00;2.67;;;;;;;;;;5047350;28;20044;-74
2022/05/03 13:43:04;;;;;;;7.47;2.72;;;;;;;;;;5079381;28;20055;-73
2022/05/03 13:45:31;;;;;;;9.15;2.67;;;;;;;;;;5045327;28;20028;-74
2022/05/03 13:47:57;;;;;;;6.35;2.70;;;;;;;;;;5062681;28;20080;-74
2022/05/03 13:50:23;;;;;;;10.18;3.15;;;;;;;;;;5061997;28;20044;-74
2022/05/03 13:52:50;;;;;;;7.30;2.72;;;;;;;;;;5079920;28;20051;-73
2022/05/03 13:55:16;;;;;;;8.30;2.40;;;;;;;;;;5078567;28;20032;-73
2022/05/03 13:57:42;;;;;;;7.05;2.88;;;;;;;;;;5083112;28;20040;-73
2022/05/03 14:00:12;;;;;;;6.53;2.63;;;;;;;;;;5079666;28;20409;-73
2022/05/03 14:02:40;;;;;;;8.15;3.20;;;;;;;;;;5081422;28;20398;-73
2022/05/03 14:05:07;;;;;;;5.43;2.85;;;;;;;;;;5061030;28;20044;-73
2022/05/03 14:07:33;;;;;;;7.43;2.80;;;;;;;;;;5060935;28;20041;-73
2022/05/03 14:10:00;;;;;;;7.47;2.88;;;;;;;;;;5082441;28;20531;-73
2022/05/03 14:12:26;;;;;;;7.53;3.35;;;;;;;;;;5081170;28;20127;-73
2022/05/03 14:14:52;;;;;;;6.75;3.08;;;;;;;;;;5078317;28;20079;-74
2022/05/03 14:17:18;;;;;;;5.88;2.50;;;;;;;;;;5079655;28;20422;-74
2022/05/03 14:19:44;;;;;;;8.15;2.88;;;;;;;;;;5078557;28;20066;-74
2022/05/03 14:22:10;;;;;;;6.95;2.50;;;;;;;;;;5077973;28;20044;-74
2022/05/03 14:24:37;;;;;;;6.53;2.78;;;;;;;;;;5079453;28;20263;-74
2022/05/03 14:27:03;;;;;;;7.88;2.97;;;;;;;;;;5060397;28;20047;-74
2022/05/03 14:29:29;;;;;;;7.22;2.53;;;;;;;;;;5061306;28;20215;-74
2022/05/03 14:31:57;;;;;;;5.15;2.08;;;;;;;;;;5079318;28;20517;-73
2022/05/03 14:34:23;;;;;;;6.57;2.72;;;;;;;;;;5078162;28;20036;-73
2022/05/03 14:36:49;;;;;;;7.15;2.70;;;;;;;;;;5078595;28;20036;-74
2022/05/03 14:39:16;;;;;;;3.90;2.30;;;;;;;;;;5079155;28;20044;-74
2022/05/03 14:41:42;;;;;;;10.90;2.55;;;;;;;;;;5059176;28;20063;-73
2022/05/03 14:44:08;;;;;;;8.20;2.47;;;;;;;;;;5076892;28;20066;-73
2022/05/03 14:46:35;;;;;;;14.13;3.40;;;;;;;;;;5080563;28;20047;-73
2022/05/03 14:49:01;;;;;;;4.07;2.13;;;;;;;;;;5051494;28;20083;-73
2022/05/03 14:51:27;;;;;;;7.28;2.53;;;;;;;;;;5083525;28;20051;-73
2022/05/03 14:53:54;;;;;;;5.25;2.35;;;;;;;;;;5058691;28;20044;-73
2022/05/03 15:04:34;;;;;;;3.65;2.20;;;;;;;;;;5058382;28;20265;-73
2022/05/03 15:07:01;;;;;;;5.10;2.50;;;;;;;;;;5079258;28;20041;-73
2022/05/03 15:09:27;;;;;;;6.63;2.72;;;;;;;;;;5079272;28;20267;-74
2022/05/03 15:11:54;;;;;;;7.05;3.33;;;;;;;;;;5061250;28;20121;-73
2022/05/03 15:14:20;;;;;;;8.43;2.75;;;;;;;;;;5078901;28;20170;-73
2022/05/03 15:16:46;;;;;;;5.82;2.60;;;;;;;;;;5059254;28;20040;-74
2022/05/03 15:19:12;;;;;;;5.40;2.55;;;;;;;;;;5080864;28;20394;-73
2022/05/03 15:21:38;;;;;;;6.57;3.10;;;;;;;;;;5060090;28;20052;-74
2022/05/03 15:26:49;;;;;;;10.27;2.97;;;;;;;;;;5078161;28;20087;-73
2022/05/03 15:29:16;;;;;;;5.75;2.70;;;;;;;;;;5079744;28;20058;-73
2022/05/03 15:31:45;;;;;;;7.03;2.88;;;;;;;;;;5064267;28;20391;-73
2022/05/03 15:34:12;;;;;;;13.73;3.20;;;;;;;;;;5077718;28;20398;-74
2022/05/03 15:36:38;;;;;;;7.38;3.60;;;;;;;;;;5077565;28;20047;-73